Airfield :
LOGIN :

Register | Disclaimer

   EN    FR    IT 

 










Legend :    VFR   Marginal VFR   IFR   Intensive IFR   Very Intensive IFR
Visi :
Ceiling :
>= 8 km
>= 3000ft
5 to 8 km
1000 to 3000 ft
1500m to 5 km
500 to 1000 ft
800 to 1500m
200 to 500 ft
< 800m
< 200 ft
Symbols :   Thunderstorms  Fog  Heavy snow  Heavy precipitations  Wind > 20 kt
SIGMETs :     Misc.  Thunderstorms  Icing  Turbulence  Mountain Waves  Volcanic Ashes







- Airport Elevation : 1776 ft
- IATA code : BWK


LDSB - Bol

CURRENT METAR :
  • 251200Z 15016KT 9999 FEW010 BKN020 12/10 Q1018

EXPIRED METARs :
  • 251100Z 14016KT 9999 FEW015 BKN025 12/09 Q1019
  • 251000Z 15015KT 9999 FEW010 BKN030 12/09 Q1019

TAF TAF LDSB
Valid from the 25 at 12:00 until the 26 at 12:00 UTC


251125Z 2512/2612 14016KT 9999 FEW015 BKN025 TX16/2611Z TN11/2603Z
TEMPO 2601/2612 14020G30KT
No reported NOTAMs for that airfield.



MET'MAP, your aeronautical weather chart ! - Copyright ORBIFLY December 2007 - Disclaimer

ORBIFLY MET'MAP TEAM :

Programming & Development : Alexandra Zaïnal
Concept & Development : Baudouin d'Aumeries
Co-Development & Prog : Marc-Olivier Méhu
Technical & hardware support : Manuel Goepfert

Contact : metmap@orbifly.com




SOURCES & CREDITS :

   NOAA